createdAt,value
2022-10-06T00:01:06.165Z,85.91
2022-10-06T00:03:10.995Z,85.72
2022-10-06T00:05:16.066Z,85.71
2022-10-06T00:07:20.825Z,85.74
2022-10-06T00:09:25.684Z,85.91
2022-10-06T00:11:30.552Z,85.96
2022-10-06T00:13:36.182Z,86.24
2022-10-06T00:15:41.062Z,86.24
2022-10-06T00:17:45.958Z,86.77
2022-10-06T00:19:50.614Z,87.28
2022-10-06T00:21:55.433Z,87.52
2022-10-06T00:24:00.208Z,87.87
2022-10-06T00:26:05.197Z,88.52
2022-10-06T00:28:10.438Z,88.52
2022-10-06T00:30:17.886Z,88.64
2022-10-06T00:32:22.737Z,89.07
2022-10-06T00:34:27.734Z,89.13
2022-10-06T00:36:32.800Z,89.49
2022-10-06T00:38:37.996Z,89.62
2022-10-06T00:40:47.864Z,89.58
2022-10-06T00:42:55.623Z,89.42
2022-10-06T00:45:03.704Z,89.69
2022-10-06T00:47:08.442Z,89.95
2022-10-06T00:49:18.077Z,90.27
2022-10-06T00:51:23.718Z,90.54
2022-10-06T00:53:30.215Z,90.64
2022-10-06T00:55:35.296Z,90.55
2022-10-06T00:57:41.747Z,90.11
2022-10-06T00:59:47.201Z,89.95
2022-10-06T01:01:59.982Z,90.10
2022-10-06T01:04:11.379Z,90.04
2022-10-06T01:06:16.402Z,90.14
2022-10-06T01:08:23.827Z,89.97
2022-10-06T01:10:28.943Z,90.19
2022-10-06T01:12:35.295Z,90.08
2022-10-06T01:14:41.497Z,90.41
2022-10-06T01:16:51.483Z,90.37
2022-10-06T01:18:57.971Z,90.20
2022-10-06T01:21:09.939Z,90.42
2022-10-06T01:23:17.075Z,90.36
2022-10-06T01:25:22.952Z,90.40
2022-10-06T01:27:31.461Z,90.20
2022-10-06T01:29:37.408Z,90.16
2022-10-06T01:31:42.588Z,90.50
2022-10-06T01:33:53.091Z,90.52
2022-10-06T01:35:58.281Z,90.60
2022-10-06T01:38:02.982Z,90.88
2022-10-06T01:40:10.009Z,90.99
2022-10-06T01:42:15.319Z,91.20
2022-10-06T01:44:20.090Z,91.41
2022-10-06T01:46:24.838Z,91.13
2022-10-06T01:48:30.428Z,91.47
2022-10-06T01:50:36.539Z,91.69
2022-10-06T01:52:41.444Z,91.83
2022-10-06T01:54:47.077Z,91.76
2022-10-06T01:56:53.035Z,91.88
2022-10-06T01:58:58.743Z,91.89
2022-10-06T02:01:08.068Z,92.22
2022-10-06T02:03:13.415Z,92.61
2022-10-06T02:05:20.315Z,92.54
2022-10-06T02:07:28.296Z,92.52
2022-10-06T02:09:33.117Z,92.26
2022-10-06T02:11:42.049Z,92.15
2022-10-06T02:13:46.968Z,92.22
2022-10-06T02:15:54.884Z,92.08
2022-10-06T02:18:00.002Z,92.23
2022-10-06T02:20:06.052Z,92.54
2022-10-06T02:22:10.985Z,92.73
2022-10-06T02:24:15.813Z,92.87
2022-10-06T02:26:21.147Z,92.85
2022-10-06T02:28:26.628Z,92.89
2022-10-06T02:30:32.131Z,92.81
2022-10-06T02:32:39.429Z,93.09
2022-10-06T02:34:44.773Z,93.22
2022-10-06T02:36:49.681Z,93.02
2022-10-06T02:38:54.492Z,92.52
2022-10-06T02:41:00.185Z,92.42
2022-10-06T02:43:05.045Z,92.67
2022-10-06T02:45:11.111Z,92.53
2022-10-06T02:47:16.714Z,92.37
2022-10-06T02:49:21.610Z,92.63
2022-10-06T02:51:26.606Z,92.68
2022-10-06T02:53:31.979Z,92.56
2022-10-06T02:55:37.069Z,92.66
2022-10-06T02:57:41.976Z,92.34
2022-10-06T02:59:47.347Z,92.51
2022-10-06T03:01:52.667Z,92.55
2022-10-06T03:04:00.686Z,92.76
2022-10-06T03:06:08.260Z,92.70
2022-10-06T03:08:14.196Z,92.96
2022-10-06T03:10:19.015Z,93.05
2022-10-06T03:12:24.019Z,93.20
2022-10-06T03:14:29.866Z,92.74
2022-10-06T03:16:37.053Z,92.52
2022-10-06T03:18:43.015Z,92.89
2022-10-06T03:20:47.854Z,93.14
2022-10-06T03:22:54.905Z,92.98
2022-10-06T03:24:59.729Z,92.92
2022-10-06T03:27:07.534Z,93.15
2022-10-06T03:29:12.937Z,92.97
2022-10-06T03:31:20.899Z,93.05
2022-10-06T03:33:25.870Z,93.50
2022-10-06T03:35:30.700Z,93.69
2022-10-06T03:37:36.367Z,93.64
2022-10-06T03:39:41.149Z,93.84
2022-10-06T03:41:46.134Z,93.79
2022-10-06T03:43:53.162Z,93.67
2022-10-06T03:45:59.361Z,93.56
2022-10-06T03:48:04.186Z,93.55
2022-10-06T03:50:10.911Z,93.49
2022-10-06T03:52:16.035Z,93.47
2022-10-06T03:54:21.126Z,93.58
2022-10-06T03:56:29.059Z,93.54
2022-10-06T03:58:35.739Z,93.67
2022-10-06T04:00:40.518Z,93.62
2022-10-06T04:02:45.291Z,93.51
2022-10-06T04:04:50.273Z,93.82
2022-10-06T04:06:55.407Z,93.99
2022-10-06T04:09:00.749Z,93.98
2022-10-06T04:11:10.721Z,93.97
2022-10-06T04:13:17.519Z,94.11
2022-10-06T04:15:22.397Z,93.99
2022-10-06T04:17:27.336Z,94.33
2022-10-06T04:19:32.178Z,94.14
2022-10-06T04:21:39.729Z,94.22
2022-10-06T04:23:47.030Z,94.25
2022-10-06T04:25:57.819Z,94.42
2022-10-06T04:28:02.651Z,94.57
2022-10-06T04:30:09.217Z,94.80
2022-10-06T04:32:14.214Z,94.84
2022-10-06T04:34:18.911Z,94.76
2022-10-06T04:36:25.920Z,94.68
2022-10-06T04:38:33.905Z,94.68
2022-10-06T04:40:38.613Z,95.05
2022-10-06T04:42:43.470Z,95.14
2022-10-06T04:44:51.329Z,94.98
2022-10-06T04:46:56.208Z,95.03
2022-10-06T04:49:01.231Z,95.52
2022-10-06T04:51:11.217Z,95.49
2022-10-06T04:53:16.219Z,95.56
2022-10-06T04:55:21.317Z,95.86
2022-10-06T04:57:26.262Z,95.78
2022-10-06T04:59:31.332Z,95.39
2022-10-06T05:01:37.809Z,95.91
2022-10-06T05:03:47.774Z,95.93
2022-10-06T05:05:52.756Z,96.09
2022-10-06T05:07:57.970Z,96.26
2022-10-06T05:10:03.428Z,96.14
2022-10-06T05:12:09.159Z,95.99
2022-10-06T05:14:13.838Z,96.09
2022-10-06T05:16:22.665Z,96.44
2022-10-06T05:18:28.663Z,96.55
2022-10-06T05:20:33.578Z,96.31
2022-10-06T05:22:38.418Z,96.07
2022-10-06T05:24:43.321Z,95.92
2022-10-06T05:26:49.086Z,96.04
2022-10-06T05:28:54.098Z,96.04
2022-10-06T05:31:03.792Z,96.08
2022-10-06T05:33:09.885Z,96.16
2022-10-06T05:35:14.766Z,96.19
2022-10-06T05:37:19.563Z,96.10
2022-10-06T05:39:24.490Z,96.44
2022-10-06T05:41:34.711Z,97.35
2022-10-06T05:43:42.452Z,96.94
2022-10-06T05:45:56.748Z,96.82
2022-10-06T05:48:01.622Z,97.54
2022-10-06T05:50:08.671Z,97.22
2022-10-06T05:52:13.523Z,97.37
2022-10-06T05:54:18.967Z,97.43
2022-10-06T05:56:25.413Z,97.24
2022-10-06T05:58:31.514Z,97.31
2022-10-06T06:00:36.904Z,96.91
2022-10-06T06:02:41.948Z,97.13
2022-10-06T06:04:48.626Z,96.91
2022-10-06T06:06:54.344Z,97.70
2022-10-06T06:09:04.422Z,96.92
2022-10-06T06:11:09.695Z,97.06
2022-10-06T06:13:19.527Z,96.64
2022-10-06T06:15:32.107Z,96.37
2022-10-06T06:17:39.696Z,96.12
2022-10-06T06:19:44.727Z,95.79
2022-10-06T06:21:49.761Z,95.51
2022-10-06T06:23:54.994Z,95.44
2022-10-06T06:26:02.634Z,95.15
2022-10-06T06:28:08.372Z,94.70
2022-10-06T06:30:14.750Z,94.37
2022-10-06T06:32:19.596Z,94.31
2022-10-06T06:34:25.201Z,94.20
2022-10-06T06:36:31.784Z,94.10
2022-10-06T06:38:36.651Z,93.73
2022-10-06T06:40:43.187Z,93.42
2022-10-06T06:42:53.570Z,93.08
2022-10-06T06:45:32.054Z,93.08
2022-10-06T06:47:41.517Z,93.00
2022-10-06T06:49:46.377Z,92.81
2022-10-06T06:51:51.605Z,92.29
2022-10-06T06:53:58.738Z,91.75
2022-10-06T06:56:04.244Z,91.25
2022-10-06T06:58:10.537Z,90.72
2022-10-06T07:00:15.974Z,90.30
2022-10-06T07:02:20.832Z,90.25
2022-10-06T07:04:26.702Z,89.99
2022-10-06T07:06:32.147Z,89.74
2022-10-06T07:08:41.171Z,89.46
2022-10-06T07:10:46.318Z,89.40
2022-10-06T07:12:51.174Z,88.98
2022-10-06T07:14:55.806Z,88.53
2022-10-06T07:17:01.083Z,88.05
2022-10-06T07:19:07.454Z,87.10
2022-10-06T07:21:13.921Z,86.64
2022-10-06T07:23:21.062Z,86.51
2022-10-06T07:25:27.022Z,86.01
2022-10-06T07:27:44.158Z,85.19
2022-10-06T07:29:51.514Z,84.51
2022-10-06T07:31:56.785Z,83.96
2022-10-06T07:34:02.403Z,82.60
2022-10-06T07:36:07.768Z,82.10
2022-10-06T07:38:13.887Z,81.02
2022-10-06T07:40:24.798Z,79.32
2022-10-06T07:42:29.570Z,78.84
2022-10-06T07:44:34.343Z,77.91
2022-10-06T07:46:39.425Z,77.07
2022-10-06T07:48:50.569Z,76.95
2022-10-06T07:50:55.256Z,75.79
2022-10-06T07:53:04.143Z,76.18
2022-10-06T07:55:10.852Z,75.42
2022-10-06T07:57:20.423Z,72.90
2022-10-06T07:59:25.133Z,73.12
2022-10-06T08:01:30.024Z,73.18
2022-10-06T08:03:36.970Z,71.33
2022-10-06T08:05:41.757Z,70.60
2022-10-06T08:07:46.409Z,69.65
2022-10-06T08:09:51.187Z,68.90
2022-10-06T08:11:55.873Z,67.53
2022-10-06T08:14:00.927Z,68.09
2022-10-06T08:16:10.836Z,68.73
2022-10-06T08:18:33.796Z,68.73
2022-10-06T08:20:42.269Z,67.29
2022-10-06T08:22:49.347Z,67.75
2022-10-06T08:25:05.856Z,67.12
2022-10-06T08:27:11.141Z,66.43
2022-10-06T08:29:15.806Z,65.74
2022-10-06T08:31:22.545Z,65.11
2022-10-06T08:33:27.400Z,65.10
2022-10-06T08:35:32.118Z,64.98
2022-10-06T08:37:36.853Z,64.35
2022-10-06T08:39:41.794Z,62.72
2022-10-06T08:41:50.437Z,61.91
2022-10-06T08:43:59.926Z,60.94
2022-10-06T08:46:05.472Z,61.28
2022-10-06T08:48:13.630Z,60.35
2022-10-06T08:50:18.849Z,60.29
2022-10-06T08:52:48.087Z,59.75
2022-10-06T08:55:00.801Z,59.52
2022-10-06T08:57:14.419Z,58.90
2022-10-06T08:59:19.252Z,58.55
2022-10-06T09:01:26.438Z,59.08
2022-10-06T09:03:31.705Z,59.44
2022-10-06T09:05:36.622Z,58.97
2022-10-06T09:07:51.113Z,59.23
2022-10-06T09:10:08.461Z,58.60
2022-10-06T09:12:19.651Z,57.31
2022-10-06T09:14:31.968Z,57.14
2022-10-06T09:16:40.035Z,57.32
2022-10-06T09:19:07.258Z,58.11
2022-10-06T09:21:16.986Z,57.76
2022-10-06T09:23:21.685Z,57.79
2022-10-06T09:25:28.017Z,57.85
2022-10-06T09:27:34.371Z,57.60
2022-10-06T09:29:39.220Z,57.69
2022-10-06T09:31:45.930Z,57.74
2022-10-06T09:33:52.846Z,57.23
2022-10-06T09:36:11.833Z,57.81
2022-10-06T09:38:16.646Z,57.40
2022-10-06T09:40:36.468Z,57.51
2022-10-06T09:42:46.671Z,56.59
2022-10-06T09:45:03.055Z,56.46
2022-10-06T09:47:30.640Z,55.54
2022-10-06T09:49:35.407Z,56.07
2022-10-06T09:51:40.556Z,56.17
2022-10-06T09:54:03.380Z,55.22
2022-10-06T09:56:14.660Z,55.08
2022-10-06T09:58:31.766Z,54.50
2022-10-06T10:00:39.809Z,54.70
2022-10-06T10:02:45.048Z,54.95
2022-10-06T10:04:55.891Z,54.61
2022-10-06T10:07:21.562Z,54.40
2022-10-06T10:09:30.110Z,53.97
2022-10-06T10:11:34.977Z,53.63
2022-10-06T10:13:45.354Z,53.72
2022-10-06T10:15:56.312Z,53.54
2022-10-06T10:18:04.768Z,53.53
2022-10-06T10:20:25.947Z,53.07
2022-10-06T10:22:35.822Z,52.62
2022-10-06T10:24:53.642Z,53.31
2022-10-06T10:27:05.636Z,52.89
2022-10-06T10:29:36.179Z,53.45
2022-10-06T10:31:52.519Z,52.93
2022-10-06T10:34:12.630Z,53.28
2022-10-06T10:36:36.612Z,53.28
2022-10-06T10:38:44.015Z,52.95
2022-10-06T10:40:52.525Z,52.94
2022-10-06T10:43:04.727Z,53.27
2022-10-06T10:45:17.841Z,52.85
2022-10-06T10:47:27.385Z,52.94
2022-10-06T10:49:34.665Z,52.55
2022-10-06T10:51:47.377Z,52.51
2022-10-06T10:53:58.549Z,51.89
2022-10-06T10:56:06.525Z,52.85
2022-10-06T10:58:18.114Z,52.81
2022-10-06T11:00:25.805Z,53.04
2022-10-06T11:02:31.892Z,52.28
2022-10-06T11:04:40.765Z,52.20
2022-10-06T11:07:01.875Z,52.60
2022-10-06T11:09:12.070Z,52.79
2022-10-06T11:11:28.017Z,51.95
2022-10-06T11:13:39.422Z,52.13
2022-10-06T11:15:56.772Z,52.32
2022-10-06T11:18:13.220Z,52.51
2022-10-06T11:20:36.686Z,52.58
2022-10-06T11:22:47.139Z,52.40
2022-10-06T11:24:59.233Z,52.46
2022-10-06T11:27:32.002Z,52.47
2022-10-06T11:29:47.634Z,52.57
2022-10-06T11:32:03.123Z,52.29
2022-10-06T11:34:09.877Z,52.71
2022-10-06T11:36:21.032Z,52.00
2022-10-06T11:38:30.509Z,52.27
2022-10-06T11:40:56.516Z,52.27
2022-10-06T11:43:07.338Z,52.03
2022-10-06T11:45:15.724Z,51.48
2022-10-06T11:47:35.088Z,51.96
2022-10-06T11:49:54.753Z,50.44
2022-10-06T11:52:44.310Z,50.79
2022-10-06T11:54:52.821Z,50.69
2022-10-06T11:56:57.751Z,50.67
2022-10-06T11:59:12.202Z,50.86
2022-10-06T12:01:54.913Z,50.60
2022-10-06T12:04:18.513Z,50.45
2022-10-06T12:07:05.858Z,50.62
2022-10-06T12:09:45.138Z,50.65
2022-10-06T12:11:50.603Z,50.98
2022-10-06T12:17:05.986Z,50.21
2022-10-06T12:19:07.429Z,50.60
2022-10-06T12:21:20.997Z,50.46
2022-10-06T12:23:48.719Z,50.98
2022-10-06T12:25:59.273Z,51.11
2022-10-06T12:28:15.053Z,50.74
2022-10-06T12:30:24.590Z,50.99
2022-10-06T12:32:45.197Z,50.55
2022-10-06T12:35:08.978Z,50.63
2022-10-06T12:37:50.113Z,50.76
2022-10-06T12:40:28.768Z,49.96
2022-10-06T12:42:33.472Z,50.30
2022-10-06T12:44:45.272Z,50.11
2022-10-06T12:46:51.555Z,49.91
2022-10-06T12:49:03.058Z,49.56
2022-10-06T12:51:19.451Z,49.59
2022-10-06T12:53:28.897Z,49.79
2022-10-06T12:55:46.675Z,50.03
2022-10-06T12:57:52.837Z,50.09
2022-10-06T12:59:58.145Z,50.22
2022-10-06T13:02:07.772Z,50.48
2022-10-06T13:04:32.108Z,50.70
2022-10-06T13:06:37.434Z,49.87
2022-10-06T13:08:42.372Z,50.26
2022-10-06T13:10:47.121Z,50.57
2022-10-06T13:12:54.965Z,50.98
2022-10-06T13:15:16.375Z,51.27
2022-10-06T13:17:21.789Z,50.66
2022-10-06T13:19:28.567Z,50.47
2022-10-06T13:21:35.458Z,50.60
2022-10-06T13:23:41.066Z,50.70
2022-10-06T13:25:47.992Z,50.32
2022-10-06T13:27:52.942Z,50.79
2022-10-06T13:30:17.266Z,50.81
2022-10-06T13:32:25.814Z,50.78
2022-10-06T13:34:33.061Z,50.63
2022-10-06T13:36:40.301Z,51.18
2022-10-06T13:38:45.094Z,51.34
2022-10-06T13:41:16.710Z,51.06
2022-10-06T13:43:21.396Z,50.65
2022-10-06T13:45:26.832Z,50.56
2022-10-06T13:47:31.978Z,50.25
2022-10-06T13:49:44.262Z,50.17
2022-10-06T13:51:51.337Z,50.67
2022-10-06T13:53:56.590Z,50.65
2022-10-06T13:56:01.550Z,50.37
2022-10-06T13:58:17.087Z,50.83
2022-10-06T14:00:23.770Z,50.36
2022-10-06T14:02:31.680Z,49.91
2022-10-06T14:04:38.932Z,50.08
2022-10-06T14:06:52.722Z,49.91
2022-10-06T14:08:59.295Z,49.70
2022-10-06T14:11:05.919Z,50.06
2022-10-06T14:13:16.105Z,50.22
2022-10-06T14:15:24.779Z,50.13
2022-10-06T14:17:30.176Z,50.41
2022-10-06T14:19:38.173Z,50.24
2022-10-06T14:21:43.924Z,50.81
2022-10-06T14:23:51.922Z,50.80
2022-10-06T14:25:56.598Z,50.62
2022-10-06T14:28:03.255Z,51.02
2022-10-06T14:30:10.778Z,51.14
2022-10-06T14:32:17.229Z,51.06
2022-10-06T14:34:23.130Z,51.24
2022-10-06T14:36:29.274Z,51.17
2022-10-06T14:38:34.063Z,51.06
2022-10-06T14:40:41.970Z,51.04
2022-10-06T14:44:56.677Z,51.04
2022-10-06T14:47:01.874Z,51.35
2022-10-06T14:49:09.091Z,51.42
2022-10-06T14:51:13.786Z,51.51
2022-10-06T14:53:18.669Z,51.11
2022-10-06T14:55:23.626Z,51.16
2022-10-06T14:58:13.607Z,51.13
2022-10-06T15:00:18.647Z,50.85
2022-10-06T15:02:25.810Z,50.80
2022-10-06T15:04:30.704Z,51.03
2022-10-06T15:06:35.403Z,51.10
2022-10-06T15:08:40.083Z,51.21
2022-10-06T15:10:52.868Z,50.90
2022-10-06T15:12:58.034Z,51.06
2022-10-06T15:15:02.742Z,51.08
2022-10-06T15:17:07.632Z,51.27
2022-10-06T15:19:12.734Z,51.33
2022-10-06T15:21:18.022Z,51.47
2022-10-06T15:23:22.890Z,51.23
2022-10-06T15:25:27.645Z,51.04
2022-10-06T15:27:32.337Z,51.07
2022-10-06T15:29:37.297Z,51.19
2022-10-06T15:31:44.399Z,51.29
2022-10-06T15:33:53.017Z,51.69
2022-10-06T15:36:16.482Z,51.90
2022-10-06T15:38:21.369Z,51.91
2022-10-06T15:40:26.425Z,52.08
2022-10-06T15:42:31.283Z,52.35
2022-10-06T15:44:36.467Z,52.65
2022-10-06T15:46:43.681Z,52.89
2022-10-06T15:48:48.447Z,52.88
2022-10-06T15:50:53.249Z,52.86
2022-10-06T15:52:57.913Z,52.98
2022-10-06T15:55:02.644Z,53.05
2022-10-06T15:57:09.405Z,53.11
2022-10-06T15:59:14.399Z,53.36
2022-10-06T16:01:44.962Z,53.47
2022-10-06T16:03:49.846Z,53.45
2022-10-06T16:05:54.553Z,53.66
2022-10-06T16:07:59.202Z,53.57
2022-10-06T16:10:04.160Z,53.58
2022-10-06T16:12:11.052Z,53.67
2022-10-06T16:14:16.725Z,53.69
2022-10-06T16:16:21.614Z,53.90
2022-10-06T16:18:26.371Z,53.80
2022-10-06T16:20:31.107Z,53.88
2022-10-06T16:22:36.250Z,54.09
2022-10-06T16:24:41.155Z,54.03
2022-10-06T16:26:46.580Z,54.08
2022-10-06T16:28:51.975Z,54.17
2022-10-06T16:30:57.841Z,54.33
2022-10-06T16:33:02.756Z,54.34
2022-10-06T16:35:08.843Z,54.46
2022-10-06T16:37:13.496Z,54.58
2022-10-06T16:39:19.757Z,54.69
2022-10-06T16:41:24.758Z,54.72
2022-10-06T16:43:34.030Z,54.93
2022-10-06T16:45:38.682Z,55.04
2022-10-06T16:47:43.384Z,55.13
2022-10-06T16:49:48.157Z,55.29
2022-10-06T16:51:52.834Z,55.35
2022-10-06T16:53:59.327Z,55.50
2022-10-06T16:56:04.748Z,55.57
2022-10-06T16:58:12.320Z,55.72
2022-10-06T17:00:17.676Z,55.87
2022-10-06T17:02:22.338Z,56.02
2022-10-06T17:04:27.142Z,56.12
2022-10-06T17:06:33.850Z,56.21
2022-10-06T17:08:38.899Z,56.28
2022-10-06T17:10:43.527Z,56.45
2022-10-06T17:12:48.289Z,56.54
2022-10-06T17:14:53.009Z,56.63
2022-10-06T17:16:58.838Z,56.81
2022-10-06T17:19:03.966Z,56.78
2022-10-06T17:21:32.320Z,56.87
2022-10-06T17:23:35.930Z,56.94
2022-10-06T17:25:40.590Z,57.05
2022-10-06T17:27:45.210Z,57.08
2022-10-06T17:29:49.871Z,57.10
2022-10-06T17:31:54.750Z,57.20
2022-10-06T17:33:59.923Z,57.33
2022-10-06T17:36:10.618Z,57.45
2022-10-06T17:38:15.415Z,57.65
2022-10-06T17:40:20.234Z,57.82
2022-10-06T17:42:25.302Z,58.00
2022-10-06T17:44:31.098Z,58.23
2022-10-06T17:46:39.606Z,58.34
2022-10-06T17:48:46.426Z,58.42
2022-10-06T17:51:00.167Z,58.70
2022-10-06T17:53:05.378Z,58.83
2022-10-06T17:55:11.081Z,58.90
2022-10-06T17:57:16.499Z,59.20
2022-10-06T17:59:23.389Z,59.60
2022-10-06T18:01:33.025Z,59.91
2022-10-06T18:03:40.392Z,60.13
2022-10-06T18:05:54.664Z,60.43
2022-10-06T18:07:59.517Z,61.02
2022-10-06T18:10:05.814Z,61.36
2022-10-06T18:12:10.988Z,61.90
2022-10-06T18:14:18.335Z,62.29
2022-10-06T18:16:26.955Z,62.61
2022-10-06T18:18:32.475Z,62.95
2022-10-06T18:20:38.013Z,63.42
2022-10-06T18:22:43.914Z,63.98
2022-10-06T18:24:49.531Z,64.31
2022-10-06T18:26:56.102Z,64.71
2022-10-06T18:29:01.374Z,65.08
2022-10-06T18:31:07.587Z,65.39
2022-10-06T18:36:10.761Z,65.75
2022-10-06T18:38:03.305Z,66.41
2022-10-06T18:40:11.582Z,66.90
2022-10-06T18:42:17.073Z,67.08
2022-10-06T18:44:22.443Z,67.14
2022-10-06T18:46:28.366Z,67.54
2022-10-06T18:48:33.290Z,67.81
2022-10-06T18:50:38.326Z,68.11
2022-10-06T18:52:43.617Z,68.21
2022-10-06T18:54:48.821Z,68.37
2022-10-06T18:56:56.720Z,68.57
2022-10-06T18:59:06.047Z,68.76
2022-10-06T19:01:15.326Z,68.76
2022-10-06T19:03:23.326Z,69.04
2022-10-06T19:05:29.341Z,69.12
2022-10-06T19:07:36.198Z,69.34
2022-10-06T19:09:46.252Z,69.59
2022-10-06T19:11:53.838Z,69.87
2022-10-06T19:13:59.407Z,70.20
2022-10-06T19:16:07.632Z,70.45
2022-10-06T19:18:16.266Z,70.47
2022-10-06T19:20:21.392Z,70.69
2022-10-06T19:22:28.902Z,70.97
2022-10-06T19:24:37.448Z,71.00
2022-10-06T19:26:49.344Z,71.22
2022-10-06T19:28:55.198Z,71.39
2022-10-06T19:31:04.233Z,71.43
2022-10-06T19:33:10.877Z,71.52
2022-10-06T19:35:16.472Z,71.49
2022-10-06T19:37:24.974Z,71.61
2022-10-06T19:39:32.447Z,71.59
2022-10-06T19:41:39.128Z,71.64
2022-10-06T19:43:45.469Z,71.86
2022-10-06T19:46:01.872Z,71.72
2022-10-06T19:48:07.311Z,71.77
2022-10-06T19:50:13.041Z,71.94
2022-10-06T19:52:18.265Z,72.17
2022-10-06T19:54:23.604Z,72.22
2022-10-06T19:56:28.946Z,72.30
2022-10-06T19:58:34.459Z,72.37
2022-10-06T20:00:39.655Z,72.43
2022-10-06T20:02:45.150Z,72.53
2022-10-06T20:04:50.370Z,72.60
2022-10-06T20:06:55.745Z,72.69
2022-10-06T20:09:01.291Z,72.83
2022-10-06T20:11:08.553Z,72.90
2022-10-06T20:13:13.553Z,72.96
2022-10-06T20:15:19.030Z,73.14
2022-10-06T20:17:23.818Z,73.24
2022-10-06T20:19:28.554Z,73.43
2022-10-06T20:21:33.897Z,73.89
2022-10-06T20:23:38.658Z,74.26
2022-10-06T20:25:43.413Z,74.50
2022-10-06T20:27:48.146Z,74.89
2022-10-06T20:29:52.873Z,74.95
2022-10-06T20:31:58.625Z,75.44
2022-10-06T20:34:05.594Z,75.60
2022-10-06T20:36:11.318Z,75.93
2022-10-06T20:38:16.233Z,76.12
2022-10-06T20:40:23.710Z,76.14
2022-10-06T20:42:28.433Z,76.33
2022-10-06T20:44:33.344Z,76.39
2022-10-06T20:46:40.068Z,76.47
2022-10-06T20:48:44.722Z,76.35
2022-10-06T20:50:49.446Z,76.63
2022-10-06T20:52:54.238Z,76.40
2022-10-06T20:54:58.875Z,76.36
2022-10-06T20:57:05.159Z,76.38
2022-10-06T20:59:12.387Z,76.27
2022-10-06T21:01:18.649Z,76.52
2022-10-06T21:03:23.490Z,76.56
2022-10-06T21:05:28.318Z,76.54
2022-10-06T21:07:33.155Z,76.60
2022-10-06T21:09:37.950Z,76.83
2022-10-06T21:11:42.903Z,76.95
2022-10-06T21:13:48.452Z,77.03
2022-10-06T21:15:53.352Z,76.95
2022-10-06T21:17:58.428Z,77.25
2022-10-06T21:20:03.389Z,77.40
2022-10-06T21:22:08.174Z,77.52
2022-10-06T21:24:13.355Z,77.72
2022-10-06T21:26:19.962Z,77.71
2022-10-06T21:28:25.315Z,77.75
2022-10-06T21:30:31.382Z,77.93
2022-10-06T21:32:36.073Z,78.06
2022-10-06T21:34:40.865Z,78.15
2022-10-06T21:36:46.116Z,78.22
2022-10-06T21:38:53.512Z,78.36
2022-10-06T21:41:02.955Z,78.44
2022-10-06T21:43:07.775Z,78.47
2022-10-06T21:45:12.747Z,78.45
2022-10-06T21:47:17.580Z,78.43
2022-10-06T21:49:23.904Z,78.45
2022-10-06T21:51:30.141Z,78.32
2022-10-06T21:53:34.876Z,78.21
2022-10-06T21:55:39.629Z,78.18
2022-10-06T21:57:44.598Z,78.06
2022-10-06T21:59:50.059Z,77.99
2022-10-06T22:01:54.939Z,77.97
2022-10-06T22:04:00.317Z,78.16
2022-10-06T22:06:06.910Z,77.96
2022-10-06T22:08:11.629Z,78.28
2022-10-06T22:10:16.555Z,78.20
2022-10-06T22:12:21.407Z,78.37
2022-10-06T22:14:26.478Z,78.36
2022-10-06T22:16:33.892Z,78.38
2022-10-06T22:18:40.156Z,78.57
2022-10-06T22:20:45.035Z,78.35
2022-10-06T22:22:50.791Z,78.35
2022-10-06T22:24:55.529Z,78.22
2022-10-06T22:27:00.311Z,78.14
2022-10-06T22:29:06.713Z,78.24
2022-10-06T22:31:12.965Z,78.20
2022-10-06T22:33:18.357Z,78.24
2022-10-06T22:35:23.692Z,78.59
2022-10-06T22:37:29.097Z,78.80
2022-10-06T22:39:35.287Z,78.74
2022-10-06T22:41:40.701Z,79.05
2022-10-06T22:43:46.079Z,79.18
2022-10-06T22:45:51.435Z,79.38
2022-10-06T22:47:56.745Z,79.58
2022-10-06T22:50:02.168Z,79.80
2022-10-06T22:52:07.546Z,80.14
2022-10-06T22:54:19.135Z,80.65
2022-10-06T22:56:24.817Z,81.04
2022-10-06T22:58:30.528Z,81.16
2022-10-06T23:00:37.225Z,81.53
2022-10-06T23:02:42.486Z,81.72
2022-10-06T23:04:50.376Z,81.87
2022-10-06T23:06:55.628Z,81.95
2022-10-06T23:09:03.285Z,82.23
2022-10-06T23:11:10.291Z,82.32
2022-10-06T23:13:15.621Z,82.32
2022-10-06T23:15:21.439Z,82.39
2022-10-06T23:17:26.821Z,82.65
2022-10-06T23:19:32.326Z,82.91
2022-10-06T23:21:37.849Z,83.00
2022-10-06T23:23:43.349Z,83.19
2022-10-06T23:25:49.979Z,83.20
2022-10-06T23:27:55.392Z,83.02
2022-10-06T23:30:00.788Z,83.21
2022-10-06T23:32:05.686Z,83.37
2022-10-06T23:34:10.493Z,83.68
2022-10-06T23:36:15.283Z,83.87
2022-10-06T23:38:20.078Z,84.05
2022-10-06T23:40:24.875Z,84.20
2022-10-06T23:42:29.705Z,84.50
2022-10-06T23:44:34.488Z,84.39
2022-10-06T23:46:39.300Z,84.44
2022-10-06T23:48:44.292Z,84.35
2022-10-06T23:50:59.072Z,84.58
2022-10-06T23:53:03.863Z,84.26
2022-10-06T23:55:09.423Z,84.45
2022-10-06T23:57:14.231Z,84.46
2022-10-06T23:59:19.016Z,84.37
